Terminal Aerodrome Forecast
Issued by NWS

Home | Current Version | Previous Version | Text Only | Print | Product List | Glossary On
Versions: 1 2 3 4 5 6 7 8 9 10 11 12 13 14 15 16
258
FTUS43 KEAX 181000 AAA
TAFSTJ
TAF AMD
KSTJ 181000Z 1810/1906 VRB02KT 2SM BR SKC
      TEMPO 1810/1813 1/4SM FG VV001
     FM181400 21009KT P6SM SCT100
     FM182100 25011KT P6SM VCTS BKN040CB
     FM190100 34006KT P6SM SCT050=

USA.gov is the U.S. government's official web portal to all federal, state and local government web resources and services.